Time;durP1;ratioP1;P1;durP2;ratioP2;P2;SDS_P1;SDS_P2;PMS_P1;PMS_P2;Temp;Humidity;BMP_temperature;BMP_pressure;BME280_temperature;BME280_humidity;BME280_pressure;Samples;Min_cycle;Max_cycle;Signal;HPM_P1;HPM_P2
2022/03/03 00:01:37;;;;;;;9.48;5.75;;;;;;;13.98;26.30;97056.88;5034596;28;20018;-27
2022/03/03 00:04:03;;;;;;;8.80;5.85;;;;;;;13.86;26.33;97048.66;5034574;28;20045;-26
2022/03/03 00:06:29;;;;;;;9.05;5.82;;;;;;;13.99;26.37;97047.50;5034529;28;20104;-26
2022/03/03 00:08:54;;;;;;;8.45;5.30;;;;;;;14.02;26.33;97051.31;5034484;28;20107;-26
2022/03/03 00:11:20;;;;;;;8.63;6.50;;;;;;;14.01;26.43;97044.34;5034532;28;20021;-26
2022/03/03 00:13:45;;;;;;;7.90;5.57;;;;;;;13.93;26.68;97038.34;5034715;28;20029;-26
2022/03/03 00:16:12;;;;;;;8.73;5.80;;;;;;;13.97;26.60;97044.44;5033873;28;20037;-27
2022/03/03 00:18:37;;;;;;;8.60;5.45;;;;;;;14.10;26.76;97040.97;5034328;28;20021;-26
2022/03/03 00:21:03;;;;;;;7.35;5.10;;;;;;;14.07;26.47;97039.13;5034486;28;20036;-26
2022/03/03 00:23:29;;;;;;;7.93;4.93;;;;;;;13.98;26.72;97035.06;5034487;28;20401;-26
2022/03/03 00:25:55;;;;;;;6.10;4.70;;;;;;;14.10;27.22;97036.28;5034328;28;20493;-26
2022/03/03 00:28:21;;;;;;;5.13;4.05;;;;;;;14.12;27.27;97033.13;5034203;28;20025;-26
2022/03/03 00:30:47;;;;;;;7.25;4.65;;;;;;;13.98;27.51;97026.88;5034348;28;20382;-27
2022/03/03 00:33:12;;;;;;;8.65;4.70;;;;;;;14.01;27.34;97027.97;5033875;28;20025;-26
2022/03/03 00:35:38;;;;;;;6.65;3.92;;;;;;;14.08;27.46;97032.47;5033966;28;20472;-26
2022/03/03 00:38:03;;;;;;;7.82;4.57;;;;;;;14.02;27.41;97030.28;5034089;28;20037;-26
2022/03/03 00:40:29;;;;;;;5.72;4.03;;;;;;;14.02;27.71;97034.97;5034085;28;20449;-27
2022/03/03 00:42:55;;;;;;;6.88;4.28;;;;;;;14.05;27.41;97033.34;5033668;28;20025;-26
2022/03/03 00:45:20;;;;;;;6.65;4.20;;;;;;;14.01;28.11;97027.97;5034114;28;20033;-26
2022/03/03 00:47:46;;;;;;;7.13;4.80;;;;;;;14.06;27.84;97027.44;5033821;28;20053;-26
2022/03/03 00:50:11;;;;;;;6.50;4.20;;;;;;;14.14;27.92;97025.25;5033750;28;20059;-26
2022/03/03 00:52:37;;;;;;;6.63;4.60;;;;;;;14.07;27.83;97025.50;5033906;28;20026;-26
2022/03/03 00:55:03;;;;;;;6.45;4.40;;;;;;;14.07;28.20;97026.25;5033688;28;20108;-27
2022/03/03 00:57:29;;;;;;;6.20;4.00;;;;;;;14.08;28.41;97027.03;5033820;28;20033;-26
2022/03/03 00:59:55;;;;;;;6.13;3.95;;;;;;;14.04;28.48;97013.47;5033789;28;20036;-26
2022/03/03 01:02:20;;;;;;;7.20;3.83;;;;;;;14.11;28.40;97012.50;5033050;28;20398;-26
2022/03/03 01:04:46;;;;;;;6.25;3.53;;;;;;;14.03;28.68;97004.53;5032196;28;20029;-26
2022/03/03 01:07:11;;;;;;;5.55;3.65;;;;;;;14.14;28.24;97012.41;5033277;28;20029;-27
2022/03/03 01:09:37;;;;;;;6.30;4.40;;;;;;;13.94;28.72;97007.16;5033634;28;20569;-26
2022/03/03 01:12:03;;;;;;;6.82;3.47;;;;;;;13.99;28.96;96998.41;5032310;28;20489;-26
2022/03/03 01:14:29;;;;;;;6.43;3.53;;;;;;;14.07;28.71;96998.22;5033417;28;20114;-27
2022/03/03 01:16:55;;;;;;;6.20;3.70;;;;;;;13.99;29.20;96998.41;5033526;28;20026;-26
2022/03/03 01:19:20;;;;;;;5.10;3.15;;;;;;;14.01;28.99;97001.47;5032167;28;20036;-27
2022/03/03 01:21:46;;;;;;;6.05;3.13;;;;;;;14.06;29.02;96992.00;5033363;28;20028;-26
2022/03/03 01:24:12;;;;;;;4.38;2.97;;;;;;;14.09;29.12;96990.38;5033417;28;20052;-28
2022/03/03 01:26:37;;;;;;;4.40;3.17;;;;;;;13.97;29.13;96992.63;5032940;28;20025;-27
2022/03/03 01:29:03;;;;;;;5.28;3.67;;;;;;;13.95;29.08;96986.88;5033201;28;20026;-27
2022/03/03 01:31:29;;;;;;;5.72;3.35;;;;;;;14.00;29.03;96985.53;5033370;28;20076;-26
2022/03/03 01:33:54;;;;;;;4.78;3.30;;;;;;;14.02;29.02;96981.19;5033436;28;20541;-27
2022/03/03 01:36:20;;;;;;;4.38;3.30;;;;;;;14.03;29.54;96973.78;5033507;28;20025;-27
2022/03/03 01:38:46;;;;;;;6.13;3.55;;;;;;;14.13;29.16;96974.63;5031989;28;20382;-26
2022/03/03 01:41:12;;;;;;;5.13;3.38;;;;;;;14.14;29.21;96960.56;5032937;28;20028;-26
2022/03/03 01:43:38;;;;;;;4.60;3.08;;;;;;;14.06;29.25;96962.00;5033099;28;20022;-27
2022/03/03 01:46:05;;;;;;;3.83;2.65;;;;;;;14.10;29.27;96954.44;5033163;28;20025;-26
2022/03/03 01:48:30;;;;;;;5.47;3.33;;;;;;;14.02;29.28;96956.63;5033045;28;20028;-27
2022/03/03 01:50:56;;;;;;;3.95;3.05;;;;;;;14.03;29.53;96950.00;5033148;28;20555;-27
2022/03/03 01:53:22;;;;;;;4.18;3.25;;;;;;;14.00;29.44;96945.41;5033051;28;20477;-27
2022/03/03 01:55:50;;;;;;;4.40;2.92;;;;;;;14.05;29.08;96937.88;5033260;28;20474;-29
2022/03/03 01:58:16;;;;;;;5.00;2.80;;;;;;;13.99;29.66;96926.75;5033182;28;20030;-26
2022/03/03 02:00:44;;;;;;;3.92;3.03;;;;;;;14.08;29.30;96926.09;5033443;28;20363;-26
2022/03/03 02:03:10;;;;;;;4.05;3.10;;;;;;;14.16;29.17;96925.44;5033060;28;20037;-27
2022/03/03 02:05:37;;;;;;;5.68;3.83;;;;;;;14.06;29.27;96917.59;5032888;28;20381;-26
2022/03/03 02:08:03;;;;;;;4.30;2.75;;;;;;;14.05;29.63;96924.25;5033027;28;20036;-26
2022/03/03 02:10:31;;;;;;;4.25;2.47;;;;;;;14.10;29.48;96923.69;5033073;28;20030;-27
2022/03/03 02:12:57;;;;;;;4.38;2.88;;;;;;;14.02;29.40;96914.97;5032933;28;20032;-27
2022/03/03 02:15:22;;;;;;;5.50;3.13;;;;;;;13.98;29.62;96917.03;5033325;28;20033;-27
2022/03/03 02:17:49;;;;;;;4.40;3.25;;;;;;;13.91;29.76;96911.81;5032827;28;20025;-27
2022/03/03 02:20:21;;;;;;;4.32;2.83;;;;;;;14.01;29.58;96918.91;5033010;28;20116;-27
2022/03/03 02:22:48;;;;;;;5.17;3.50;;;;;;;14.00;29.92;96915.41;5033280;28;20022;-27
2022/03/03 02:25:14;;;;;;;3.70;3.00;;;;;;;14.02;29.75;96921.19;5032988;28;20432;-27
2022/03/03 02:27:41;;;;;;;4.82;2.95;;;;;;;13.98;29.94;96925.22;5032817;28;20433;-27
2022/03/03 02:30:06;;;;;;;5.53;3.38;;;;;;;13.96;30.10;96917.50;5032935;28;20041;-26
2022/03/03 02:32:32;;;;;;;4.68;3.00;;;;;;;14.00;30.01;96923.59;5032601;28;20026;-28
2022/03/03 02:34:58;;;;;;;3.63;2.78;;;;;;;13.97;29.85;96923.72;5032761;28;20025;-26
2022/03/03 02:37:24;;;;;;;5.03;3.13;;;;;;;14.02;29.91;96926.66;5032722;28;20025;-27
2022/03/03 02:39:49;;;;;;;4.25;2.80;;;;;;;13.90;30.31;96924.69;5034251;28;20029;-29
2022/03/03 02:42:15;;;;;;;3.75;2.60;;;;;;;14.03;30.00;96924.69;5036219;28;20489;-26
2022/03/03 02:44:41;;;;;;;4.00;2.88;;;;;;;14.12;29.84;96918.56;5036498;28;20070;-27
2022/03/03 02:47:06;;;;;;;5.18;3.08;;;;;;;14.07;30.27;96917.16;5035959;28;20104;-27
2022/03/03 02:49:32;;;;;;;4.45;2.78;;;;;;;13.95;30.28;96913.25;5036079;28;20511;-27
2022/03/03 02:51:57;;;;;;;3.90;2.75;;;;;;;13.95;30.30;96910.50;5035658;28;20029;-27
2022/03/03 02:54:23;;;;;;;4.13;2.90;;;;;;;13.91;30.28;96904.41;5036069;28;20026;-28
2022/03/03 02:59:34;;;;;;;3.45;2.53;;;;;;;13.88;30.83;96909.94;5035936;28;20504;-26
2022/03/03 03:01:59;;;;;;;4.03;2.80;;;;;;;13.88;30.61;96905.25;5035546;28;20013;-27
2022/03/03 03:04:25;;;;;;;3.47;2.33;;;;;;;13.90;30.62;96905.59;5035892;28;20025;-27
2022/03/03 03:06:50;;;;;;;3.38;2.65;;;;;;;13.75;30.95;96909.94;5035713;28;20100;-26
2022/03/03 03:09:16;;;;;;;3.70;2.70;;;;;;;13.78;30.95;96905.59;5035932;28;20470;-26
2022/03/03 03:11:42;;;;;;;4.35;2.58;;;;;;;13.84;30.83;96903.88;5035655;28;20038;-27
2022/03/03 03:14:07;;;;;;;4.40;2.70;;;;;;;13.74;30.97;96904.91;5034441;28;20398;-26
2022/03/03 03:16:33;;;;;;;4.35;3.05;;;;;;;13.89;31.00;96912.25;5035648;28;20490;-26
2022/03/03 03:18:58;;;;;;;4.60;2.78;;;;;;;13.92;30.64;96902.44;5035438;28;20053;-27
2022/03/03 03:21:24;;;;;;;4.85;2.88;;;;;;;13.86;31.08;96906.88;5035409;28;20033;-26
2022/03/03 03:23:49;;;;;;;3.88;2.60;;;;;;;13.77;31.38;96910.28;5035597;28;20075;-27
2022/03/03 03:26:15;;;;;;;4.20;2.83;;;;;;;13.86;31.00;96907.66;5035420;28;20087;-27
2022/03/03 03:28:41;;;;;;;3.85;2.65;;;;;;;13.95;31.05;96898.84;5035200;28;20028;-26
2022/03/03 03:31:07;;;;;;;3.40;2.42;;;;;;;13.80;31.04;96898.50;5035308;28;20057;-28
2022/03/03 03:33:33;;;;;;;3.00;2.35;;;;;;;13.87;30.85;96898.28;5035203;28;20094;-27
2022/03/03 03:35:59;;;;;;;3.97;2.60;;;;;;;13.83;31.54;96896.88;5035181;28;20021;-27
2022/03/03 03:38:25;;;;;;;6.57;2.78;;;;;;;13.92;30.92;96895.03;5035461;28;20155;-27
2022/03/03 03:40:50;;;;;;;3.05;2.58;;;;;;;13.85;31.24;96897.19;5035171;28;20112;-27
2022/03/03 03:43:16;;;;;;;4.65;2.47;;;;;;;13.78;31.37;96895.44;5035281;28;20032;-26
2022/03/03 03:45:41;;;;;;;4.05;2.22;;;;;;;13.76;31.00;96892.38;5034868;28;20109;-26
2022/03/03 03:48:07;;;;;;;3.58;2.65;;;;;;;13.90;31.03;96889.22;5035236;28;20026;-26
2022/03/03 03:50:33;;;;;;;3.00;2.50;;;;;;;13.86;31.04;96891.28;5034427;28;20029;-27
2022/03/03 03:52:59;;;;;;;4.00;2.58;;;;;;;13.76;31.64;96891.63;5034927;28;20084;-26
2022/03/03 03:55:25;;;;;;;3.63;2.55;;;;;;;13.72;31.51;96891.75;5034814;28;20446;-27
2022/03/03 03:57:50;;;;;;;4.15;2.60;;;;;;;13.66;31.86;96880.63;5034699;28;20030;-27
2022/03/03 04:00:17;;;;;;;4.00;2.80;;;;;;;13.83;31.68;96884.00;5034977;28;20060;-27
2022/03/03 04:02:44;;;;;;;3.70;2.28;;;;;;;13.88;31.20;96883.44;5034761;28;20045;-27
2022/03/03 04:05:10;;;;;;;3.55;2.35;;;;;;;13.96;31.07;96881.28;5034665;28;20025;-27
2022/03/03 04:07:37;;;;;;;4.65;2.90;;;;;;;13.96;31.27;96884.78;5034772;28;20536;-26
2022/03/03 04:10:04;;;;;;;5.57;2.53;;;;;;;13.92;31.23;96884.09;5034550;28;20033;-26
2022/03/03 04:12:29;;;;;;;3.53;2.55;;;;;;;13.85;31.41;96886.28;5034508;28;20034;-26
2022/03/03 04:14:55;;;;;;;3.65;2.28;;;;;;;13.88;31.40;96886.19;5034470;28;20607;-27
2022/03/03 04:17:20;;;;;;;3.63;2.42;;;;;;;13.91;31.29;96887.28;5034305;28;20057;-27
2022/03/03 04:19:46;;;;;;;3.83;2.38;;;;;;;13.91;31.59;96893.50;5034349;28;20033;-26
2022/03/03 04:22:12;;;;;;;3.42;2.47;;;;;;;13.85;31.82;96894.47;5034354;28;20057;-26
2022/03/03 04:24:37;;;;;;;3.17;2.50;;;;;;;13.89;31.65;96895.13;5034283;28;20450;-26
2022/03/03 04:27:04;;;;;;;2.90;2.30;;;;;;;13.90;31.79;96885.75;5034131;28;20489;-26
2022/03/03 04:29:30;;;;;;;3.78;2.10;;;;;;;13.86;31.70;96880.38;5034273;28;20025;-27
2022/03/03 04:31:57;;;;;;;3.15;2.40;;;;;;;13.78;31.63;96881.06;5033881;28;20038;-27
2022/03/03 04:34:24;;;;;;;4.15;2.22;;;;;;;13.86;31.76;96887.81;5034341;28;20470;-27
2022/03/03 04:36:50;;;;;;;3.47;2.30;;;;;;;13.82;31.54;96892.63;5033935;28;20025;-27
2022/03/03 04:39:15;;;;;;;3.40;2.25;;;;;;;13.79;31.61;96888.03;5034070;28;20343;-27
2022/03/03 04:41:41;;;;;;;2.83;2.53;;;;;;;13.84;31.56;96887.50;5034008;28;20389;-26
2022/03/03 04:44:07;;;;;;;4.35;3.22;;;;;;;13.76;31.76;96889.66;5034012;28;20100;-27
2022/03/03 04:46:33;;;;;;;4.07;2.42;;;;;;;13.92;31.72;96884.09;5033915;28;20057;-27
2022/03/03 04:48:59;;;;;;;3.50;2.72;;;;;;;13.87;31.63;96881.16;5033718;28;20025;-27
2022/03/03 04:51:25;;;;;;;5.63;2.70;;;;;;;13.86;32.08;96880.38;5033903;28;20051;-27
2022/03/03 04:53:51;;;;;;;4.43;2.70;;;;;;;13.94;31.83;96876.25;5033677;28;20029;-27
2022/03/03 04:56:17;;;;;;;4.20;2.60;;;;;;;13.91;31.97;96884.53;5033968;28;20040;-27
2022/03/03 04:58:44;;;;;;;3.50;2.53;;;;;;;13.85;32.23;96883.56;5033796;28;20052;-27
2022/03/03 05:01:10;;;;;;;5.28;3.15;;;;;;;13.83;32.17;96881.28;5033843;28;20029;-27
2022/03/03 05:03:36;;;;;;;5.40;2.80;;;;;;;13.92;32.02;96878.66;5032780;28;20084;-27
2022/03/03 05:06:02;;;;;;;6.25;3.00;;;;;;;13.86;31.98;96882.34;5033571;28;20116;-27
2022/03/03 05:08:27;;;;;;;4.95;3.10;;;;;;;13.89;32.28;96876.78;5033758;28;20033;-27
2022/03/03 05:10:53;;;;;;;7.03;3.40;;;;;;;13.84;31.96;96882.81;5033529;28;20048;-27
2022/03/03 05:13:19;;;;;;;4.40;3.15;;;;;;;13.84;32.06;96885.53;5033409;28;20025;-27
2022/03/03 05:15:46;;;;;;;4.53;2.83;;;;;;;13.78;32.65;96876.38;5033547;28;20056;-27
2022/03/03 05:18:11;;;;;;;5.78;3.25;;;;;;;13.75;32.52;96874.50;5033472;28;20505;-27
2022/03/03 05:20:38;;;;;;;4.43;3.38;;;;;;;13.84;32.18;96877.38;5033235;28;20052;-27
2022/03/03 05:23:04;;;;;;;4.43;3.10;;;;;;;13.83;32.32;96880.53;5033457;28;20025;-27
2022/03/03 05:25:30;;;;;;;4.63;2.83;;;;;;;13.86;31.85;96871.44;5031325;28;20056;-27
2022/03/03 05:27:55;;;;;;;5.07;3.38;;;;;;;13.90;32.11;96877.56;5031052;28;20053;-27
2022/03/03 05:30:21;;;;;;;4.32;3.35;;;;;;;13.87;32.03;96870.25;5031334;28;20025;-27
2022/03/03 05:32:49;;;;;;;6.07;3.30;;;;;;;13.91;31.60;96873.63;5031270;28;20033;-27
2022/03/03 05:35:15;;;;;;;5.32;3.47;;;;;;;13.85;31.69;96864.47;5031095;28;20040;-27
2022/03/03 05:37:41;;;;;;;4.53;3.40;;;;;;;13.86;31.89;96874.16;5031020;28;20500;-27
2022/03/03 05:40:08;;;;;;;6.32;3.35;;;;;;;13.85;31.78;96867.97;5029817;28;20026;-27
2022/03/03 05:42:35;;;;;;;5.05;3.20;;;;;;;13.91;31.87;96863.50;5031091;28;20021;-27
2022/03/03 05:45:07;;;;;;;6.50;3.55;;;;;;;13.85;31.96;96859.78;5031010;28;20025;-26
2022/03/03 05:47:34;;;;;;;6.53;3.85;;;;;;;13.85;32.06;96862.50;5031135;28;20040;-26
2022/03/03 05:50:00;;;;;;;7.05;3.83;;;;;;;13.82;31.69;96852.50;5030717;28;20033;-27
2022/03/03 05:52:26;;;;;;;5.60;3.65;;;;;;;13.76;32.20;96859.69;5030914;28;20049;-27
2022/03/03 05:54:52;;;;;;;5.75;3.70;;;;;;;13.80;31.80;96859.56;5030928;28;20049;-27
2022/03/03 05:57:21;;;;;;;6.47;3.70;;;;;;;13.83;31.71;96856.75;5031059;28;20022;-27
2022/03/03 05:59:53;;;;;;;6.68;3.33;;;;;;;13.80;31.83;96860.34;5030988;28;20033;-27
2022/03/03 06:02:20;;;;;;;10.38;3.63;;;;;;;13.72;32.03;96861.78;5030509;28;20034;-27
2022/03/03 06:04:48;;;;;;;6.70;3.72;;;;;;;13.81;31.91;96864.59;5031003;28;20025;-26
2022/03/03 06:07:23;;;;;;;7.85;3.10;;;;;;;13.82;31.52;96866.13;5030938;28;20087;-27
2022/03/03 06:09:52;;;;;;;7.38;3.47;;;;;;;13.69;31.51;96868.09;5030878;28;20056;-27
2022/03/03 06:12:26;;;;;;;5.15;3.10;;;;;;;13.67;31.41;96862.31;5030736;28;20521;-27
2022/03/03 06:14:53;;;;;;;6.25;3.53;;;;;;;13.79;31.35;96869.72;5032598;28;20025;-28
2022/03/03 06:17:24;;;;;;;4.40;3.08;;;;;;;13.84;30.82;96863.72;5032948;28;20485;-27
2022/03/03 06:19:52;;;;;;;4.15;2.80;;;;;;;13.84;30.74;96858.28;5034597;28;20040;-27
2022/03/03 06:22:19;;;;;;;4.32;2.75;;;;;;;13.89;30.63;96865.13;5034525;28;20132;-27
2022/03/03 06:24:45;;;;;;;5.25;3.38;;;;;;;13.80;30.75;96865.78;5034409;28;20103;-27
2022/03/03 06:27:10;;;;;;;5.70;2.53;;;;;;;13.82;30.21;96868.84;5034330;28;20037;-27
2022/03/03 06:29:38;;;;;;;7.00;3.13;;;;;;;13.81;30.21;96883.69;5034491;28;20025;-26
2022/03/03 06:32:04;;;;;;;4.00;2.63;;;;;;;13.75;30.17;96871.78;5034057;28;20036;-27
2022/03/03 06:34:30;;;;;;;6.20;3.17;;;;;;;13.81;30.16;96872.78;5034465;28;20064;-27
2022/03/03 06:36:55;;;;;;;9.25;3.70;;;;;;;13.77;30.29;96876.81;5034324;28;20057;-27
2022/03/03 06:39:21;;;;;;;6.60;3.20;;;;;;;13.77;30.38;96871.34;5034035;28;20518;-27
2022/03/03 06:41:47;;;;;;;7.13;3.60;;;;;;;13.77;29.96;96868.63;5034107;28;20029;-27
2022/03/03 06:44:13;;;;;;;5.60;3.20;;;;;;;13.70;30.06;96872.34;5034088;28;20523;-27
2022/03/03 06:46:39;;;;;;;8.95;3.50;;;;;;;13.74;30.18;96872.22;5032849;28;20036;-27
2022/03/03 06:49:05;;;;;;;5.85;2.97;;;;;;;13.79;30.06;96875.16;5033768;28;20029;-28
2022/03/03 06:51:42;;;;;;;6.57;3.30;;;;;;;13.80;30.10;96881.38;5033722;28;20373;-27
2022/03/03 06:54:13;;;;;;;8.00;3.65;;;;;;;13.80;30.17;96873.97;5033870;28;20112;-27
2022/03/03 06:56:48;;;;;;;9.13;3.47;;;;;;;13.76;30.12;96878.75;5033497;28;20025;-27
2022/03/03 06:59:16;;;;;;;9.18;3.25;;;;;;;13.72;30.42;96880.84;5033758;28;20025;-27
2022/03/03 07:01:43;;;;;;;5.55;3.17;;;;;;;13.75;30.41;96876.47;5033191;28;20078;-27
2022/03/03 07:04:08;;;;;;;7.28;3.40;;;;;;;13.73;30.08;96876.13;5033425;28;20132;-27
2022/03/03 07:06:35;;;;;;;7.75;3.00;;;;;;;13.75;30.21;96877.22;5032999;28;20129;-27
2022/03/03 07:09:01;;;;;;;6.45;3.40;;;;;;;13.71;30.51;96881.28;5033471;28;20025;-27
2022/03/03 07:11:31;;;;;;;7.63;3.10;;;;;;;13.65;31.03;96881.03;5033367;28;20037;-27
2022/03/03 07:14:00;;;;;;;4.18;2.88;;;;;;;13.66;30.92;96877.88;5033238;28;20056;-27
2022/03/03 07:16:45;;;;;;;4.75;3.00;;;;;;;13.63;30.92;96888.88;5031755;28;20064;-27
2022/03/03 07:19:26;;;;;;;5.50;3.42;;;;;;;13.68;30.92;96884.88;5033283;28;20374;-27
2022/03/03 07:21:51;;;;;;;6.93;3.40;;;;;;;13.69;30.82;96886.41;5030182;28;20462;-27
2022/03/03 07:24:33;;;;;;;4.53;3.03;;;;;;;13.57;31.13;96885.19;5033339;28;20044;-27
2022/03/03 07:27:04;;;;;;;4.70;3.20;;;;;;;13.61;31.40;96892.06;5032815;28;20469;-27
2022/03/03 07:29:33;;;;;;;6.38;3.30;;;;;;;13.69;30.87;96892.63;5033478;28;20109;-27
2022/03/03 07:32:04;;;;;;;7.25;3.67;;;;;;;13.63;31.08;96894.34;5033296;28;20017;-27
2022/03/03 07:34:34;;;;;;;9.48;3.53;;;;;;;13.67;30.98;96889.56;5033330;28;20078;-27
2022/03/03 07:37:06;;;;;;;4.43;3.00;;;;;;;13.66;31.03;96899.69;5033062;28;20101;-27
2022/03/03 07:39:39;;;;;;;7.60;3.30;;;;;;;13.66;31.38;96896.97;5033339;28;20100;-27
2022/03/03 07:42:08;;;;;;;5.47;3.90;;;;;;;13.62;31.36;96893.56;5033482;28;20350;-27
2022/03/03 07:44:34;;;;;;;10.15;5.20;;;;;;;12.50;33.58;96896.25;5035106;28;20032;-27
2022/03/03 07:47:01;;;;;;;8.35;4.40;;;;;;;12.90;32.90;96898.72;5034719;28;20425;-27
2022/03/03 07:49:27;;;;;;;7.20;4.47;;;;;;;13.16;32.26;96899.59;5034963;28;20052;-26
2022/03/03 07:51:54;;;;;;;7.80;4.50;;;;;;;13.34;32.08;96893.66;5035013;28;20034;-27
2022/03/03 07:54:19;;;;;;;7.55;4.70;;;;;;;13.39;31.86;96904.78;5034772;28;20025;-27
2022/03/03 07:56:48;;;;;;;6.55;4.25;;;;;;;13.48;31.82;96901.41;5034888;28;20095;-27
2022/03/03 07:59:18;;;;;;;6.85;4.32;;;;;;;13.49;31.76;96906.41;5034781;28;20520;-27
2022/03/03 08:01:45;;;;;;;7.10;4.05;;;;;;;13.54;32.05;96907.84;5034729;28;20091;-27
2022/03/03 08:04:15;;;;;;;7.53;4.43;;;;;;;13.56;31.80;96902.75;5034469;28;20409;-28
2022/03/03 08:06:40;;;;;;;5.82;4.15;;;;;;;13.60;31.59;96903.38;5034625;28;20022;-27
2022/03/03 08:09:08;;;;;;;5.82;3.83;;;;;;;13.55;32.31;96907.44;5034735;28;20021;-27
2022/03/03 08:11:39;;;;;;;5.93;4.32;;;;;;;13.54;32.21;96892.28;5034551;28;20030;-27
2022/03/03 08:14:05;;;;;;;6.65;4.35;;;;;;;13.58;31.68;96892.94;5034411;28;20052;-27
2022/03/03 08:16:35;;;;;;;6.80;3.88;;;;;;;13.59;32.15;96896.44;5034487;28;20026;-27
2022/03/03 08:19:02;;;;;;;4.53;3.70;;;;;;;13.55;31.94;96896.53;5034274;28;20025;-27
2022/03/03 08:21:30;;;;;;;6.15;3.75;;;;;;;13.57;32.39;96891.41;5034652;28;20025;-27
2022/03/03 08:24:02;;;;;;;5.65;3.92;;;;;;;13.65;31.72;96891.94;5034110;28;20029;-27
2022/03/03 08:26:29;;;;;;;7.35;4.60;;;;;;;13.58;32.06;96892.94;5032944;28;20022;-28
2022/03/03 08:28:54;;;;;;;7.93;5.07;;;;;;;13.63;31.71;96884.19;5034390;28;20038;-27
2022/03/03 08:31:32;;;;;;;5.30;4.47;;;;;;;13.55;31.99;96884.84;5035230;28;20108;-28
2022/03/03 08:34:10;;;;;;;6.10;4.28;;;;;;;13.63;32.18;96892.38;5014307;28;20101;-27
2022/03/03 08:36:44;;;;;;;5.53;4.05;;;;;;;13.57;32.28;96891.41;5045419;28;20028;-27
2022/03/03 08:39:11;;;;;;;6.10;3.88;;;;;;;13.56;32.50;96892.59;5050364;28;20036;-27
2022/03/03 08:41:39;;;;;;;5.93;4.10;;;;;;;13.60;32.28;96889.75;5033852;28;20033;-28
2022/03/03 08:44:07;;;;;;;6.40;4.50;;;;;;;13.57;32.24;96894.13;5034243;28;20043;-27
2022/03/03 08:46:35;;;;;;;5.88;4.20;;;;;;;13.56;32.66;96894.56;5034271;28;20061;-27
2022/03/03 08:49:04;;;;;;;5.95;4.05;;;;;;;13.47;32.66;96886.28;5033759;28;20022;-27
2022/03/03 08:51:30;;;;;;;7.28;3.92;;;;;;;13.54;32.60;96886.06;5032523;28;20032;-27
2022/03/03 08:53:56;;;;;;;8.93;4.40;;;;;;;13.56;32.38;96884.44;5033758;28;20021;-27
2022/03/03 08:56:25;;;;;;;5.55;4.10;;;;;;;13.58;32.40;96886.72;5033738;28;20385;-27
2022/03/03 08:58:52;;;;;;;7.93;4.32;;;;;;;13.63;32.59;96884.19;5033668;28;20104;-27
2022/03/03 09:01:18;;;;;;;5.68;4.05;;;;;;;13.65;32.55;96889.22;5032404;28;20425;-27
2022/03/03 09:03:44;;;;;;;6.55;4.10;;;;;;;13.52;32.44;96885.72;5033264;28;20038;-26
2022/03/03 09:06:18;;;;;;;6.32;4.15;;;;;;;13.57;32.56;96899.59;5032803;28;20394;-27
2022/03/03 09:08:44;;;;;;;5.90;4.05;;;;;;;13.57;32.28;96887.91;5033671;28;20071;-27
2022/03/03 09:11:10;;;;;;;7.25;4.60;;;;;;;13.51;32.59;96886.91;5033600;28;20029;-27
2022/03/03 09:13:36;;;;;;;7.53;4.80;;;;;;;13.51;32.43;96887.69;5032751;28;20536;-27
2022/03/03 09:16:02;;;;;;;7.05;4.80;;;;;;;13.46;32.68;96879.28;5033034;28;20033;-27
2022/03/03 09:18:28;;;;;;;7.03;4.85;;;;;;;13.56;32.20;96878.22;5033387;28;20021;-27
2022/03/03 09:20:54;;;;;;;6.78;4.40;;;;;;;13.54;32.71;96872.44;5033275;28;20057;-27
2022/03/03 09:23:19;;;;;;;8.70;5.25;;;;;;;13.55;32.51;96885.63;5033325;28;20096;-27
2022/03/03 09:25:45;;;;;;;7.30;5.00;;;;;;;13.56;32.72;96887.16;5032984;28;20567;-27
2022/03/03 09:28:11;;;;;;;6.57;4.38;;;;;;;13.54;32.80;96877.88;5033435;28;20048;-27
2022/03/03 09:30:37;;;;;;;7.93;4.70;;;;;;;13.47;32.82;96875.38;5033211;28;20022;-27
2022/03/03 09:33:04;;;;;;;7.07;4.60;;;;;;;13.54;32.54;96878.66;5033191;28;20104;-28
2022/03/03 09:35:30;;;;;;;5.75;4.40;;;;;;;13.31;33.21;96873.50;5033222;28;20021;-27
2022/03/03 09:37:55;;;;;;;7.93;5.18;;;;;;;13.58;32.35;96875.81;5033416;28;20029;-27
2022/03/03 09:40:21;;;;;;;8.02;4.60;;;;;;;13.50;32.80;96877.22;5033218;28;20021;-27
2022/03/03 09:43:00;;;;;;;9.45;4.90;;;;;;;13.52;32.43;96872.88;5031108;28;20061;-27
2022/03/03 09:45:26;;;;;;;7.15;4.50;;;;;;;13.61;32.37;96880.38;5031114;28;20103;-27
2022/03/03 09:47:56;;;;;;;7.43;4.32;;;;;;;13.58;32.29;96873.88;5033093;28;20022;-27
2022/03/03 09:50:24;;;;;;;7.30;4.22;;;;;;;13.54;32.25;96877.88;5037381;28;20116;-27
2022/03/03 09:52:50;;;;;;;7.57;4.68;;;;;;;13.58;32.28;96875.81;5037031;28;20024;-26
2022/03/03 09:55:16;;;;;;;6.15;4.38;;;;;;;13.55;32.54;96882.91;5037380;28;20021;-28
2022/03/03 09:57:42;;;;;;;6.90;4.38;;;;;;;13.64;32.15;96877.56;5036121;28;20358;-27
2022/03/03 10:00:09;;;;;;;7.30;4.05;;;;;;;13.56;32.27;96880.94;5036879;28;20466;-27
2022/03/03 10:03:09;;;;;;;6.93;4.35;;;;;;;13.48;32.28;96877.66;5036933;28;20056;-27
2022/03/03 10:05:47;;;;;;;6.10;4.13;;;;;;;13.57;32.19;96875.06;5036939;28;20049;-27
2022/03/03 10:08:18;;;;;;;5.22;3.92;;;;;;;13.55;31.82;96871.22;5036752;28;20470;-28
2022/03/03 10:10:52;;;;;;;5.18;3.78;;;;;;;13.63;32.05;96872.53;5037036;28;20030;-27
2022/03/03 10:13:18;;;;;;;6.30;4.03;;;;;;;13.57;31.88;96864.16;5037126;28;20032;-27
2022/03/03 10:15:53;;;;;;;7.90;4.20;;;;;;;13.62;32.00;96866.31;5036684;28;20091;-27
2022/03/03 10:18:19;;;;;;;7.25;4.03;;;;;;;13.59;31.84;96861.00;5036624;28;20029;-27
2022/03/03 10:20:48;;;;;;;7.20;4.18;;;;;;;13.48;32.39;96866.75;5036585;28;20040;-27
2022/03/03 10:23:15;;;;;;;5.65;3.60;;;;;;;13.31;32.47;96859.88;5036766;28;20056;-26
2022/03/03 10:25:44;;;;;;;8.32;4.70;;;;;;;13.57;31.86;96858.72;5036490;28;20054;-27
2022/03/03 10:28:11;;;;;;;5.45;3.30;;;;;;;13.57;32.06;96857.94;5035283;28;20067;-26
2022/03/03 10:31:22;;;;;;;5.55;3.95;;;;;;;13.50;31.88;96855.41;5036361;28;20413;-28
2022/03/03 10:33:51;;;;;;;5.50;3.92;;;;;;;13.44;32.02;96851.72;5032509;28;20452;-27
2022/03/03 10:36:22;;;;;;;5.22;3.55;;;;;;;13.45;32.00;96851.28;5036592;28;20473;-27
2022/03/03 10:38:56;;;;;;;4.93;3.30;;;;;;;13.48;31.29;96844.94;5036341;28;20407;-27
2022/03/03 10:41:40;;;;;;;7.45;4.32;;;;;;;13.06;32.05;96852.38;5036300;28;20022;-27
2022/03/03 10:44:10;;;;;;;;;;;;;;;13.53;31.86;96849.88;5036671;28;20029;-28
2022/03/03 10:46:41;;;;;;;5.63;3.70;;;;;;;13.36;30.90;96847.66;5034892;28;20367;-28
2022/03/03 10:49:17;;;;;;;6.88;4.43;;;;;;;12.74;31.72;96841.59;5036503;28;20029;-27
2022/03/03 10:51:43;;;;;;;27.02;12.38;;;;;;;13.20;30.91;96830.22;5035979;28;20021;-27
2022/03/03 10:54:10;;;;;;;12.10;6.47;;;;;;;12.96;30.41;96837.13;5036175;28;20493;-27
2022/03/03 10:56:46;;;;;;;11.48;5.72;;;;;;;13.09;31.05;96835.19;5036016;28;20048;-27
2022/03/03 10:59:17;;;;;;;25.00;11.90;;;;;;;13.18;30.22;96835.34;5035522;28;20022;-27
2022/03/03 11:01:44;;;;;;;21.67;9.48;;;;;;;13.33;30.89;96829.47;5034076;28;20056;-29
2022/03/03 11:04:21;;;;;;;20.30;9.73;;;;;;;13.29;30.21;96821.41;5035670;28;20414;-27
2022/03/03 11:06:52;;;;;;;9.00;5.18;;;;;;;13.55;30.78;96822.94;5035972;28;20551;-27
2022/03/03 11:09:18;;;;;;;9.23;5.10;;;;;;;13.65;30.85;96821.84;5035952;28;20032;-27
2022/03/03 11:11:45;;;;;;;12.15;6.18;;;;;;;13.72;30.63;96820.88;5035832;28;20026;-27
2022/03/03 11:14:11;;;;;;;18.73;9.88;;;;;;;13.36;29.47;96823.91;5035717;28;20029;-27
2022/03/03 11:16:39;;;;;;;13.52;7.57;;;;;;;13.59;30.82;96820.88;5034588;28;20048;-27
2022/03/03 11:19:05;;;;;;;11.50;6.85;;;;;;;13.63;29.91;96807.91;5035715;28;20082;-27
2022/03/03 11:21:30;;;;;;;12.18;6.40;;;;;;;13.46;29.66;96822.06;5034302;28;20025;-27
2022/03/03 11:23:58;;;;;;;9.98;6.07;;;;;;;13.17;30.42;96809.31;5035505;28;20480;-26
2022/03/03 11:26:30;;;;;;;12.18;6.70;;;;;;;13.15;30.58;96803.53;5035488;28;20022;-27
2022/03/03 11:29:02;;;;;;;11.10;5.97;;;;;;;13.34;30.53;96806.50;5035494;28;20034;-27
2022/03/03 11:31:31;;;;;;;8.93;5.70;;;;;;;13.22;30.10;96795.16;5035306;28;20041;-27
2022/03/03 11:34:21;;;;;;;10.65;5.53;;;;;;;13.44;30.61;96795.28;5035194;28;20037;-27
2022/03/03 11:36:58;;;;;;;12.70;5.57;;;;;;;13.51;30.67;96799.72;5035475;28;20028;-27
2022/03/03 11:39:45;;;;;;;8.73;5.25;;;;;;;13.56;31.02;96789.06;5035341;28;20080;-27